Time;durP1;ratioP1;P1;durP2;ratioP2;P2;SDS_P1;SDS_P2;PMS_P1;PMS_P2;Temp;Humidity;BMP_temperature;BMP_pressure;BME280_temperature;BME280_humidity;BME280_pressure;Samples;Min_cycle;Max_cycle;Signal;HPM_P1;HPM_P2
2022/12/03 00:03:34;;;;;;;11.00;7.73;;;4.90;97.50;;;;;;940205;147;27398;-79
2022/12/03 00:05:59;;;;;;;10.57;7.90;;;4.90;97.40;;;;;;941569;147;27277;-79
2022/12/03 00:08:26;;;;;;;11.53;8.67;;;4.90;97.60;;;;;;940476;147;27935;-79
2022/12/03 00:10:53;;;;;;;10.83;8.37;;;4.90;97.70;;;;;;938947;147;27324;-79
2022/12/03 00:13:19;;;;;;;11.07;7.97;;;4.90;97.70;;;;;;940082;147;27429;-79
2022/12/03 00:15:46;;;;;;;11.57;8.40;;;5.00;97.70;;;;;;940825;147;27319;-79
2022/12/03 00:18:12;;;;;;;11.87;8.97;;;4.90;97.70;;;;;;941408;147;27271;-79
2022/12/03 00:20:39;;;;;;;12.30;8.37;;;4.90;97.80;;;;;;943181;147;27326;-79
2022/12/03 00:23:05;;;;;;;13.97;9.63;;;4.90;97.80;;;;;;942190;147;27346;-79
2022/12/03 00:25:32;;;;;;;12.30;9.17;;;5.00;97.80;;;;;;939632;147;28580;-79
2022/12/03 00:27:59;;;;;;;13.17;9.60;;;5.00;97.90;;;;;;938339;147;27332;-79
2022/12/03 00:30:25;;;;;;;11.60;8.50;;;5.00;97.90;;;;;;941697;147;27913;-79
2022/12/03 00:32:52;;;;;;;11.07;8.63;;;5.00;98.00;;;;;;942777;147;27325;-79
2022/12/03 00:35:18;;;;;;;14.83;9.07;;;5.00;97.90;;;;;;940641;147;27347;-79
2022/12/03 00:37:45;;;;;;;14.50;10.23;;;5.10;97.90;;;;;;942359;147;27373;-79
2022/12/03 00:40:12;;;;;;;12.27;9.27;;;5.10;97.90;;;;;;944444;147;27332;-79
2022/12/03 00:42:38;;;;;;;12.37;9.73;;;5.10;97.90;;;;;;944829;147;27308;-78
2022/12/03 00:45:05;;;;;;;11.73;9.20;;;5.10;97.90;;;;;;946124;147;27329;-78
2022/12/03 00:47:31;;;;;;;14.17;9.83;;;5.10;97.90;;;;;;940820;147;27403;-79
2022/12/03 00:49:58;;;;;;;15.67;9.27;;;5.10;97.90;;;;;;941706;147;27926;-79
2022/12/03 00:52:25;;;;;;;14.23;9.87;;;5.10;97.90;;;;;;942711;147;27444;-79
2022/12/03 00:54:51;;;;;;;13.10;9.37;;;5.10;97.90;;;;;;952556;145;27394;-79
2022/12/03 00:57:18;;;;;;;14.33;9.90;;;5.10;97.90;;;;;;955293;145;27297;-79
2022/12/03 00:59:44;;;;;;;14.13;9.50;;;5.20;97.90;;;;;;954704;145;27362;-79
2022/12/03 01:02:11;;;;;;;12.50;9.80;;;5.20;97.90;;;;;;952421;146;27359;-79
2022/12/03 01:04:38;;;;;;;12.77;9.47;;;5.20;97.90;;;;;;952907;146;27364;-79
2022/12/03 01:07:04;;;;;;;13.97;9.00;;;5.20;97.90;;;;;;922808;151;27287;-79
2022/12/03 01:09:31;;;;;;;12.87;9.57;;;5.30;97.60;;;;;;955405;146;27439;-79
2022/12/03 01:11:57;;;;;;;14.73;9.87;;;5.30;97.80;;;;;;953708;145;27300;-78
2022/12/03 01:14:24;;;;;;;14.23;9.60;;;5.30;97.70;;;;;;951843;145;27279;-79
2022/12/03 01:16:50;;;;;;;14.33;10.17;;;5.30;97.70;;;;;;955216;146;27347;-79
2022/12/03 01:19:18;;;;;;;12.17;8.87;;;5.30;97.50;;;;;;954017;145;27328;-79
2022/12/03 01:21:44;;;;;;;13.77;9.80;;;5.30;97.50;;;;;;954356;146;27299;-79
2022/12/03 01:24:10;;;;;;;14.07;9.50;;;5.30;97.20;;;;;;953834;146;27779;-79
2022/12/03 01:26:37;;;;;;;14.13;9.27;;;5.30;97.30;;;;;;954767;146;27307;-79
2022/12/03 01:29:03;;;;;;;13.47;9.07;;;5.40;97.40;;;;;;955661;146;27427;-79
2022/12/03 01:34:14;;;;;;;15.37;10.50;;;5.40;97.20;;;;;;953928;146;27277;-79
2022/12/03 01:36:41;;;;;;;14.87;9.50;;;5.40;97.00;;;;;;953741;145;27451;-79
2022/12/03 01:39:08;;;;;;;17.77;10.07;;;5.40;97.00;;;;;;953986;145;27315;-79
2022/12/03 01:41:34;;;;;;;14.90;9.77;;;5.40;96.90;;;;;;953282;146;27446;-79
2022/12/03 01:44:01;;;;;;;12.63;9.67;;;5.40;96.90;;;;;;954242;146;28045;-79
2022/12/03 01:46:27;;;;;;;14.13;9.47;;;5.40;96.90;;;;;;954291;146;27282;-79
2022/12/03 01:48:54;;;;;;;12.43;9.23;;;5.40;96.90;;;;;;952642;146;27390;-79
2022/12/03 01:51:21;;;;;;;16.10;10.77;;;5.40;96.90;;;;;;952945;146;27380;-79
2022/12/03 01:53:47;;;;;;;14.83;10.40;;;5.40;96.90;;;;;;953076;146;27417;-79
2022/12/03 01:56:18;;;;;;;13.07;9.53;;;5.40;96.80;;;;;;942691;147;27337;-79
2022/12/03 01:58:44;;;;;;;13.40;10.00;;;5.50;96.70;;;;;;941550;147;27358;-79
2022/12/03 02:01:14;;;;;;;16.13;11.07;;;5.50;96.50;;;;;;906048;152;27287;-79
2022/12/03 02:03:40;;;;;;;13.43;10.20;;;5.50;96.40;;;;;;900811;153;27346;-79
2022/12/03 02:06:16;;;;;;;15.27;10.40;;;5.40;96.40;;;;;;919129;150;27409;-79
2022/12/03 02:08:42;;;;;;;12.50;9.03;;;5.40;96.40;;;;;;916621;150;27493;-79
2022/12/03 02:11:30;;;;;;;14.80;9.93;;;5.40;96.50;;;;;;902290;153;27412;-79
2022/12/03 02:13:57;;;;;;;14.33;9.70;;;5.40;96.50;;;;;;886707;158;27408;-80
2022/12/03 02:16:23;;;;;;;14.80;9.80;;;5.40;96.40;;;;;;887731;158;27362;-80
2022/12/03 02:18:50;;;;;;;14.63;10.03;;;5.40;96.40;;;;;;898641;152;27312;-80
2022/12/03 02:21:16;;;;;;;13.17;9.60;;;5.40;96.50;;;;;;913809;152;27541;-80
2022/12/03 02:24:01;;;;;;;14.03;9.50;;;5.40;96.60;;;;;;914888;151;27507;-80
2022/12/03 02:26:28;;;;;;;14.43;9.23;;;5.40;96.50;;;;;;914474;153;27437;-79
2022/12/03 02:28:54;;;;;;;14.60;9.93;;;5.40;96.30;;;;;;916725;152;27766;-79
2022/12/03 02:31:21;;;;;;;13.77;9.20;;;5.40;96.40;;;;;;915918;152;27354;-79
2022/12/03 02:33:48;;;;;;;13.97;9.43;;;5.40;96.40;;;;;;915799;152;27361;-79
2022/12/03 02:36:14;;;;;;;14.73;10.10;;;5.40;96.40;;;;;;916028;152;27412;-79
2022/12/03 02:38:41;;;;;;;13.00;9.30;;;5.40;96.50;;;;;;915297;152;27377;-79
2022/12/03 02:41:07;;;;;;;14.57;9.70;;;5.40;96.60;;;;;;916085;152;27518;-79
2022/12/03 02:43:34;;;;;;;13.20;10.00;;;5.50;96.60;;;;;;916158;152;27306;-79
2022/12/03 02:46:00;;;;;;;15.33;10.07;;;5.50;96.60;;;;;;914287;152;27527;-79
2022/12/03 02:48:33;;;;;;;13.53;9.80;;;5.50;96.60;;;;;;915456;152;27405;-79
2022/12/03 02:50:59;;;;;;;12.57;9.07;;;5.50;96.60;;;;;;915334;152;27463;-79
2022/12/03 02:53:41;;;;;;;14.27;9.37;;;5.50;96.60;;;;;;915324;152;27435;-79
2022/12/03 02:56:07;;;;;;;12.10;8.87;;;5.50;96.50;;;;;;918769;151;27418;-82
2022/12/03 02:58:34;;;;;;;14.13;9.67;;;5.50;96.30;;;;;;940061;146;27370;-79
2022/12/03 03:01:00;;;;;;;14.33;9.67;;;5.50;96.20;;;;;;938737;146;27382;-79
2022/12/03 03:03:27;;;;;;;13.40;9.63;;;5.50;96.20;;;;;;939920;147;27393;-79
2022/12/03 03:05:55;;;;;;;13.90;9.87;;;5.50;96.30;;;;;;939039;146;27639;-79
2022/12/03 03:08:20;;;;;;;11.60;8.60;;;5.50;96.50;;;;;;939310;146;27484;-79
2022/12/03 03:10:47;;;;;;;14.70;9.47;;;5.50;96.20;;;;;;940093;151;27367;-79
2022/12/03 03:13:13;;;;;;;14.10;9.77;;;5.50;96.10;;;;;;939993;146;27368;-79
2022/12/03 03:15:40;;;;;;;12.30;9.87;;;5.50;96.00;;;;;;940288;146;27348;-79
2022/12/03 03:18:06;;;;;;;13.43;9.10;;;5.50;96.00;;;;;;939277;146;27391;-79
2022/12/03 03:20:33;;;;;;;11.40;8.93;;;5.50;96.00;;;;;;939562;146;27515;-79
2022/12/03 03:23:11;;;;;;;12.97;9.23;;;5.50;96.10;;;;;;942550;146;27339;-79
2022/12/03 03:25:38;;;;;;;12.20;8.53;;;5.50;96.00;;;;;;940561;146;27812;-79
2022/12/03 03:28:04;;;;;;;12.97;8.23;;;5.50;96.00;;;;;;940134;146;27287;-79
2022/12/03 03:30:31;;;;;;;12.17;8.13;;;5.50;96.10;;;;;;940696;146;27365;-79
2022/12/03 03:32:58;;;;;;;12.47;8.90;;;5.50;96.20;;;;;;941283;146;27406;-79
2022/12/03 03:35:24;;;;;;;11.13;8.90;;;5.50;96.20;;;;;;941750;146;27284;-79
2022/12/03 03:37:51;;;;;;;12.50;9.33;;;5.50;96.10;;;;;;939493;146;27421;-79
2022/12/03 03:40:17;;;;;;;13.80;9.03;;;5.50;96.20;;;;;;937982;146;27378;-79
2022/12/03 03:42:44;;;;;;;12.83;8.87;;;5.50;96.20;;;;;;940667;146;27436;-79
2022/12/03 03:45:11;;;;;;;11.10;9.13;;;5.50;96.30;;;;;;939551;146;27621;-79
2022/12/03 03:47:37;;;;;;;12.23;9.23;;;5.50;96.30;;;;;;938706;146;27337;-79
2022/12/03 03:50:04;;;;;;;12.17;8.40;;;5.50;96.20;;;;;;941046;146;27309;-77
2022/12/03 03:52:31;;;;;;;10.73;8.23;;;5.50;96.20;;;;;;940317;146;27222;-77
2022/12/03 03:54:58;;;;;;;10.70;8.27;;;5.50;96.20;;;;;;941870;146;27276;-79
2022/12/03 03:57:25;;;;;;;12.77;8.40;;;5.50;96.20;;;;;;952482;146;27456;-79
2022/12/03 03:59:51;;;;;;;11.17;7.87;;;5.50;96.20;;;;;;954807;146;27307;-79
2022/12/03 04:02:18;;;;;;;10.83;7.87;;;5.50;96.30;;;;;;953741;146;27331;-79
2022/12/03 04:04:44;;;;;;;10.47;8.30;;;5.50;96.40;;;;;;953332;146;27350;-79
2022/12/03 04:07:11;;;;;;;10.60;8.00;;;5.50;96.40;;;;;;952138;145;27257;-78
2022/12/03 04:09:37;;;;;;;9.03;7.00;;;5.50;96.50;;;;;;953647;146;27347;-79
2022/12/03 04:14:49;;;;;;;9.93;7.40;;;5.50;96.40;;;;;;952993;146;27323;-81
2022/12/03 04:17:15;;;;;;;9.37;7.60;;;5.50;96.30;;;;;;952910;145;27681;-81
2022/12/03 04:19:42;;;;;;;10.77;7.93;;;5.50;96.30;;;;;;955135;146;29532;-81
2022/12/03 04:28:47;;;;;;;9.40;7.00;;;5.50;96.30;;;;;;952840;145;27243;-79
2022/12/03 04:30:05;;;;;;;10.67;7.50;;;5.60;96.30;;;;;;954012;146;27452;-79
2022/12/03 04:38:01;;;;;;;8.13;6.63;;;5.60;96.30;;;;;;954732;146;27463;-79
2022/12/03 04:43:11;;;;;;;7.70;6.23;;;5.60;96.30;;;;;;953368;146;27340;-81
2022/12/03 04:45:38;;;;;;;10.50;6.80;;;5.60;96.20;;;;;;956287;146;27771;-79
2022/12/03 04:48:05;;;;;;;10.23;7.87;;;5.50;96.20;;;;;;954426;145;27391;-79
2022/12/03 04:50:31;;;;;;;10.73;7.10;;;5.50;96.20;;;;;;954097;145;27376;-79
2022/12/03 04:52:58;;;;;;;9.10;7.07;;;5.50;96.10;;;;;;952872;145;27413;-79
2022/12/03 04:55:24;;;;;;;8.50;7.03;;;5.50;95.90;;;;;;954392;145;27402;-79
2022/12/03 04:57:51;;;;;;;9.23;7.23;;;5.50;95.80;;;;;;956248;145;27373;-79
2022/12/03 05:00:18;;;;;;;9.00;7.23;;;5.50;95.80;;;;;;953958;146;27288;-79
2022/12/03 05:02:44;;;;;;;7.20;6.30;;;5.50;95.70;;;;;;951744;146;27862;-79
2022/12/03 05:05:11;;;;;;;8.10;6.70;;;5.50;95.80;;;;;;953840;145;27322;-79
2022/12/03 05:07:37;;;;;;;9.00;7.27;;;5.50;95.80;;;;;;956448;145;27346;-79
2022/12/03 05:10:04;;;;;;;9.60;7.07;;;5.50;95.90;;;;;;952459;146;27398;-79
2022/12/03 05:12:31;;;;;;;9.53;6.97;;;5.50;95.90;;;;;;954671;145;27295;-79
2022/12/03 05:14:57;;;;;;;7.63;6.23;;;5.50;95.90;;;;;;953033;145;27379;-79
2022/12/03 05:17:24;;;;;;;8.43;6.87;;;5.50;96.00;;;;;;955242;145;27423;-79
2022/12/03 05:22:35;;;;;;;8.23;6.67;;;5.50;96.00;;;;;;955602;148;27395;-81
2022/12/03 05:25:02;;;;;;;8.37;6.77;;;5.50;96.00;;;;;;956282;146;27461;-81
2022/12/03 05:27:29;;;;;;;8.03;6.40;;;5.50;96.40;;;;;;953960;145;27300;-81
2022/12/03 05:29:55;;;;;;;8.37;6.70;;;5.50;96.10;;;;;;922586;151;27420;-79
2022/12/03 05:32:22;;;;;;;9.83;7.10;;;5.50;96.10;;;;;;954490;145;27344;-79
2022/12/03 05:34:48;;;;;;;9.13;7.40;;;5.50;96.10;;;;;;956063;145;27367;-79
2022/12/03 05:37:15;;;;;;;9.73;7.17;;;5.50;96.00;;;;;;954442;145;27341;-79
2022/12/03 05:39:42;;;;;;;8.53;6.90;;;5.50;96.00;;;;;;953358;146;27327;-79
2022/12/03 05:44:53;;;;;;;9.93;7.63;;;5.50;95.80;;;;;;953576;146;27412;-79
2022/12/03 05:47:19;;;;;;;10.00;7.97;;;5.50;95.80;;;;;;956252;146;27360;-79
2022/12/03 05:49:46;;;;;;;12.20;9.33;;;5.50;95.80;;;;;;953245;146;27363;-79
2022/12/03 05:52:13;;;;;;;11.37;8.13;;;5.50;95.80;;;;;;929329;151;27319;-79
2022/12/03 05:54:39;;;;;;;7.90;6.90;;;5.50;95.90;;;;;;955108;145;27333;-79
2022/12/03 05:57:06;;;;;;;10.07;7.63;;;5.50;95.90;;;;;;950068;145;27450;-79
2022/12/03 05:59:33;;;;;;;9.23;7.10;;;5.40;95.90;;;;;;941519;147;27326;-79
2022/12/03 06:01:59;;;;;;;10.87;7.07;;;5.40;95.90;;;;;;941766;147;27458;-79
2022/12/03 06:04:25;;;;;;;8.80;7.13;;;5.40;95.90;;;;;;942336;147;27421;-79
2022/12/03 06:06:52;;;;;;;8.50;6.90;;;5.40;95.90;;;;;;939878;147;27611;-79
2022/12/03 06:09:19;;;;;;;8.97;7.30;;;5.40;95.90;;;;;;939971;147;27329;-79
2022/12/03 06:11:45;;;;;;;9.03;6.83;;;5.40;95.90;;;;;;941994;147;27390;-79
2022/12/03 06:14:12;;;;;;;8.43;6.57;;;5.50;95.90;;;;;;940535;147;27402;-79
2022/12/03 06:16:38;;;;;;;9.07;7.13;;;5.40;96.10;;;;;;941385;147;27405;-79
2022/12/03 06:19:05;;;;;;;9.70;7.00;;;5.40;95.80;;;;;;941949;147;27718;-79
2022/12/03 06:21:32;;;;;;;8.83;7.13;;;5.40;95.80;;;;;;939609;147;27822;-79
2022/12/03 06:24:00;;;;;;;8.43;6.63;;;5.40;95.70;;;;;;940375;150;27339;-79
2022/12/03 06:26:25;;;;;;;9.07;6.93;;;5.40;95.70;;;;;;940941;147;27441;-79
2022/12/03 06:28:51;;;;;;;8.07;6.63;;;5.40;95.70;;;;;;941688;147;27394;-79
2022/12/03 06:31:18;;;;;;;7.40;6.37;;;5.40;95.70;;;;;;942060;147;27344;-79
2022/12/03 06:33:44;;;;;;;9.07;7.07;;;5.40;95.60;;;;;;940985;147;27416;-79
2022/12/03 06:36:11;;;;;;;9.13;7.47;;;5.40;96.00;;;;;;943553;147;27378;-79
2022/12/03 06:38:38;;;;;;;8.83;7.20;;;5.40;95.70;;;;;;938727;147;27328;-79
2022/12/03 06:41:04;;;;;;;10.50;7.67;;;5.40;95.70;;;;;;940169;147;27362;-78
2022/12/03 06:43:31;;;;;;;10.93;7.80;;;5.40;95.60;;;;;;940558;147;27298;-78
2022/12/03 06:45:57;;;;;;;9.80;7.57;;;5.40;95.60;;;;;;942638;148;28135;-78
2022/12/03 06:48:24;;;;;;;8.67;7.47;;;5.40;95.50;;;;;;938905;147;27427;-78
2022/12/03 06:50:51;;;;;;;9.90;7.73;;;5.40;95.40;;;;;;942123;147;27356;-79
2022/12/03 06:53:17;;;;;;;9.73;8.03;;;5.40;95.30;;;;;;940419;147;27438;-79
2022/12/03 06:55:44;;;;;;;9.13;7.33;;;5.40;95.30;;;;;;942692;147;27262;-79
2022/12/03 06:58:10;;;;;;;12.07;8.53;;;5.40;95.40;;;;;;945941;146;27404;-79
2022/12/03 07:00:37;;;;;;;9.80;7.33;;;5.40;95.60;;;;;;953967;146;27296;-79
2022/12/03 07:03:03;;;;;;;13.33;8.57;;;5.40;95.60;;;;;;952472;146;27439;-79
2022/12/03 07:05:30;;;;;;;10.03;8.33;;;5.40;95.70;;;;;;953090;146;27378;-79
2022/12/03 07:07:57;;;;;;;10.70;7.97;;;5.40;95.80;;;;;;952503;145;27284;-79
2022/12/03 07:10:23;;;;;;;11.03;8.40;;;5.40;95.90;;;;;;952407;146;27291;-79
2022/12/03 07:12:50;;;;;;;11.67;8.57;;;5.40;95.90;;;;;;954233;145;27269;-79
2022/12/03 07:15:16;;;;;;;10.90;8.53;;;5.40;95.80;;;;;;953791;146;27378;-79
2022/12/03 07:17:43;;;;;;;8.17;7.10;;;5.40;95.90;;;;;;953824;146;27333;-79
2022/12/03 07:20:10;;;;;;;11.53;9.33;;;5.40;95.90;;;;;;952470;146;28803;-79
2022/12/03 07:22:36;;;;;;;12.67;8.63;;;5.40;96.00;;;;;;951601;146;27273;-79
2022/12/03 07:25:03;;;;;;;10.37;8.03;;;5.40;96.00;;;;;;954560;145;27369;-79
2022/12/03 07:27:29;;;;;;;10.67;8.30;;;5.40;95.90;;;;;;954371;146;27401;-79
2022/12/03 07:29:56;;;;;;;9.73;8.00;;;5.50;95.80;;;;;;952225;145;27452;-79
2022/12/03 07:32:23;;;;;;;10.27;8.57;;;5.50;95.80;;;;;;952899;146;27355;-79
2022/12/03 07:34:49;;;;;;;10.00;8.23;;;5.50;95.80;;;;;;955192;145;27291;-79
2022/12/03 07:37:16;;;;;;;10.73;8.43;;;5.50;95.80;;;;;;953579;145;27348;-79
2022/12/03 07:39:42;;;;;;;11.57;8.87;;;5.50;95.80;;;;;;951980;146;27260;-79
2022/12/03 07:42:09;;;;;;;11.30;9.07;;;5.50;95.80;;;;;;952147;146;27461;-79
2022/12/03 07:44:35;;;;;;;10.97;9.23;;;5.50;95.80;;;;;;955544;146;27467;-79
2022/12/03 07:47:02;;;;;;;11.47;9.00;;;5.50;95.70;;;;;;955043;146;27303;-79
2022/12/03 07:49:29;;;;;;;10.53;8.50;;;5.60;95.70;;;;;;952772;146;27299;-79
2022/12/03 07:51:56;;;;;;;11.37;8.73;;;5.60;95.80;;;;;;955498;148;27313;-79
2022/12/03 07:54:22;;;;;;;12.27;9.10;;;5.60;95.70;;;;;;953371;145;27344;-79
2022/12/03 07:56:48;;;;;;;12.33;9.03;;;5.60;95.70;;;;;;953026;145;27364;-79
2022/12/03 07:59:15;;;;;;;11.80;8.43;;;5.60;95.70;;;;;;953101;146;27427;-79
2022/12/03 08:01:42;;;;;;;13.37;9.23;;;5.60;95.80;;;;;;953532;146;27446;-79
2022/12/03 08:04:08;;;;;;;13.37;10.43;;;5.60;95.90;;;;;;954594;145;27334;-79
2022/12/03 08:06:35;;;;;;;13.17;9.90;;;5.60;96.00;;;;;;955831;145;27287;-79
2022/12/03 08:09:01;;;;;;;13.30;9.80;;;5.60;95.90;;;;;;954287;145;27374;-79
2022/12/03 08:11:28;;;;;;;12.10;9.10;;;5.70;96.00;;;;;;954202;146;27849;-79
2022/12/03 08:13:54;;;;;;;14.90;9.53;;;5.70;96.10;;;;;;954463;145;27772;-79
2022/12/03 08:16:21;;;;;;;11.83;9.30;;;5.70;96.10;;;;;;954517;145;27360;-79
2022/12/03 08:18:48;;;;;;;10.97;8.83;;;5.70;96.20;;;;;;954770;148;27248;-79
2022/12/03 08:21:14;;;;;;;10.90;8.93;;;5.80;96.10;;;;;;955377;145;27418;-79
2022/12/03 08:23:41;;;;;;;12.17;9.33;;;5.80;96.20;;;;;;955778;145;27471;-79
2022/12/03 08:26:22;;;;;;;12.80;8.53;;;5.90;96.20;;;;;;956068;145;27302;-79
2022/12/03 08:28:49;;;;;;;12.10;9.40;;;5.90;96.30;;;;;;954898;146;27400;-79
2022/12/03 08:31:19;;;;;;;13.53;9.80;;;6.00;96.30;;;;;;955088;146;27329;-79
2022/12/03 08:33:47;;;;;;;14.13;9.10;;;6.00;96.40;;;;;;953805;146;27332;-79
2022/12/03 08:36:26;;;;;;;11.30;9.13;;;6.10;96.40;;;;;;953827;145;27283;-79
2022/12/03 08:38:55;;;;;;;11.27;8.77;;;6.10;96.20;;;;;;953467;145;27303;-79
2022/12/03 08:44:26;;;;;;;12.23;8.50;;;6.20;96.40;;;;;;956221;146;27475;-79
2022/12/03 08:47:01;;;;;;;10.43;8.53;;;6.30;96.30;;;;;;955938;145;27291;-79
2022/12/03 08:49:28;;;;;;;10.77;8.70;;;6.30;96.20;;;;;;953775;145;27448;-79
2022/12/03 08:51:54;;;;;;;10.33;8.23;;;6.30;96.00;;;;;;955632;146;27360;-79
2022/12/03 08:54:21;;;;;;;9.33;8.30;;;6.40;95.90;;;;;;954214;146;27363;-79
2022/12/03 08:56:48;;;;;;;10.97;7.87;;;6.40;95.70;;;;;;955808;145;27424;-79
2022/12/03 08:59:29;;;;;;;11.37;8.73;;;6.40;95.60;;;;;;955551;145;27350;-79
2022/12/03 09:01:56;;;;;;;10.03;8.43;;;6.40;95.50;;;;;;956487;145;27338;-79
2022/12/03 09:04:38;;;;;;;11.47;9.37;;;6.50;95.40;;;;;;957054;145;27330;-79
2022/12/03 09:07:04;;;;;;;11.10;8.73;;;6.50;95.30;;;;;;953664;145;27438;-79
2022/12/03 09:09:31;;;;;;;12.73;9.70;;;6.50;95.30;;;;;;955705;145;27373;-80
2022/12/03 09:11:57;;;;;;;11.30;9.00;;;6.50;95.20;;;;;;956449;145;27439;-79
2022/12/03 09:14:24;;;;;;;12.17;9.27;;;6.50;95.30;;;;;;955228;145;27371;-79
2022/12/03 09:16:54;;;;;;;11.80;9.30;;;6.50;95.20;;;;;;956827;145;28330;-79
2022/12/03 09:19:20;;;;;;;11.57;8.77;;;6.60;95.30;;;;;;955237;145;27330;-80
2022/12/03 09:21:49;;;;;;;11.00;8.63;;;6.60;95.40;;;;;;953735;146;27380;-80
2022/12/03 09:24:16;;;;;;;13.50;9.57;;;6.60;95.50;;;;;;955147;145;27286;-80
2022/12/03 09:26:43;;;;;;;12.47;9.70;;;6.70;95.70;;;;;;955454;145;27327;-80
2022/12/03 09:29:09;;;;;;;13.90;10.33;;;6.70;95.70;;;;;;952916;146;27356;-80
2022/12/03 09:31:37;;;;;;;13.87;10.43;;;6.70;95.70;;;;;;954127;146;27370;-79
2022/12/03 09:34:02;;;;;;;14.47;10.70;;;6.80;95.60;;;;;;956721;145;27287;-79
2022/12/03 09:36:29;;;;;;;15.17;11.30;;;6.80;95.60;;;;;;956357;145;27765;-79
2022/12/03 09:38:56;;;;;;;14.77;10.73;;;6.90;95.50;;;;;;956145;145;27400;-79
2022/12/03 09:41:22;;;;;;;14.33;11.13;;;6.90;95.50;;;;;;954675;146;27267;-79
2022/12/03 09:43:49;;;;;;;13.50;10.03;;;7.00;95.40;;;;;;953152;145;27350;-79
2022/12/03 09:46:15;;;;;;;12.67;9.57;;;7.00;95.30;;;;;;955616;145;27332;-80
2022/12/03 09:48:42;;;;;;;13.10;10.80;;;7.10;95.20;;;;;;953460;145;27427;-79
2022/12/03 09:51:09;;;;;;;16.43;12.37;;;7.10;95.20;;;;;;952321;146;27327;-79
2022/12/03 09:53:35;;;;;;;14.97;11.67;;;7.10;94.90;;;;;;955387;145;27822;-79
2022/12/03 09:56:02;;;;;;;13.13;10.57;;;7.20;94.70;;;;;;955301;145;27370;-79
2022/12/03 09:58:28;;;;;;;14.63;11.53;;;7.20;94.60;;;;;;951818;146;27327;-80
2022/12/03 10:00:55;;;;;;;15.60;11.30;;;7.20;94.50;;;;;;936199;145;27930;-79
2022/12/03 10:03:22;;;;;;;15.77;11.97;;;7.20;94.40;;;;;;926712;150;27410;-79
2022/12/03 10:05:48;;;;;;;13.77;11.43;;;7.30;94.40;;;;;;928371;150;27384;-80
2022/12/03 10:08:17;;;;;;;15.27;11.20;;;7.30;94.20;;;;;;930012;150;27459;-79
2022/12/03 10:10:41;;;;;;;16.63;11.23;;;7.30;94.10;;;;;;928612;151;27804;-79
2022/12/03 10:13:08;;;;;;;12.77;10.33;;;7.30;94.00;;;;;;929046;150;27349;-79
2022/12/03 10:15:34;;;;;;;14.17;11.30;;;7.30;93.90;;;;;;927312;150;27371;-80
2022/12/03 10:18:01;;;;;;;13.37;10.40;;;7.30;93.70;;;;;;928805;150;27409;-80
2022/12/03 10:20:28;;;;;;;14.13;10.80;;;7.30;93.60;;;;;;926884;150;27404;-80
2022/12/03 10:22:54;;;;;;;14.43;11.10;;;7.30;93.60;;;;;;927801;150;27401;-79
2022/12/03 10:25:21;;;;;;;14.00;11.67;;;7.30;93.60;;;;;;928886;150;28657;-79
2022/12/03 10:27:59;;;;;;;15.03;11.37;;;7.30;93.60;;;;;;927422;150;27423;-80
2022/12/03 10:30:27;;;;;;;13.63;10.77;;;7.30;93.70;;;;;;930474;150;27415;-79
2022/12/03 10:32:52;;;;;;;13.70;10.37;;;7.30;93.60;;;;;;928786;149;27392;-78
2022/12/03 10:35:19;;;;;;;13.37;10.60;;;7.30;93.50;;;;;;927612;150;27386;-79
2022/12/03 10:37:58;;;;;;;14.53;11.53;;;7.30;93.40;;;;;;928028;150;27894;-79
2022/12/03 10:40:24;;;;;;;15.60;11.87;;;7.30;93.40;;;;;;925367;151;27325;-79
2022/12/03 10:42:51;;;;;;;14.53;10.77;;;7.30;93.60;;;;;;927119;150;27454;-79
2022/12/03 10:45:21;;;;;;;14.50;11.33;;;7.40;93.70;;;;;;927999;151;27368;-79
2022/12/03 10:48:10;;;;;;;15.07;11.40;;;7.40;93.70;;;;;;927055;151;27390;-79
2022/12/03 10:50:37;;;;;;;14.33;11.50;;;7.50;93.70;;;;;;928491;150;27330;-79
2022/12/03 10:53:04;;;;;;;14.27;11.27;;;7.50;93.60;;;;;;929213;150;27409;-79
2022/12/03 10:55:30;;;;;;;16.10;12.13;;;7.50;93.40;;;;;;929145;150;27448;-79
2022/12/03 10:57:57;;;;;;;14.47;12.27;;;7.60;93.30;;;;;;927027;150;27324;-79
2022/12/03 11:00:23;;;;;;;14.83;11.37;;;7.60;93.10;;;;;;931144;147;27525;-79
2022/12/03 11:02:50;;;;;;;15.83;12.27;;;7.60;92.80;;;;;;939245;147;28401;-79
2022/12/03 11:05:16;;;;;;;13.97;11.27;;;7.60;92.80;;;;;;939746;147;27364;-79
2022/12/03 11:07:43;;;;;;;15.20;12.37;;;7.70;92.90;;;;;;941112;147;27294;-79
2022/12/03 11:10:16;;;;;;;18.77;13.73;;;7.70;92.80;;;;;;940327;147;27408;-79
2022/12/03 11:12:42;;;;;;;16.13;13.17;;;7.70;92.80;;;;;;938404;147;27361;-79
2022/12/03 11:15:15;;;;;;;15.40;11.87;;;7.80;92.90;;;;;;939058;147;27448;-79
2022/12/03 11:17:53;;;;;;;17.60;13.60;;;7.80;92.80;;;;;;942384;147;27423;-79
2022/12/03 11:20:20;;;;;;;15.43;12.07;;;7.80;92.50;;;;;;940501;147;27253;-79
2022/12/03 11:22:46;;;;;;;15.67;11.13;;;7.90;92.40;;;;;;941348;147;27345;-78
2022/12/03 11:25:28;;;;;;;16.10;12.77;;;7.90;92.20;;;;;;939799;147;27356;-79
2022/12/03 11:28:09;;;;;;;19.97;14.03;;;7.90;92.00;;;;;;938944;147;27325;-79
2022/12/03 11:30:48;;;;;;;18.90;14.73;;;7.90;91.80;;;;;;941462;147;27294;-79
2022/12/03 11:33:33;;;;;;;16.93;13.60;;;7.90;91.90;;;;;;940413;147;27400;-79
2022/12/03 11:36:02;;;;;;;16.43;12.20;;;7.90;92.00;;;;;;942224;147;27289;-79
2022/12/03 11:38:41;;;;;;;15.63;11.80;;;7.80;91.90;;;;;;939639;147;27361;-79
2022/12/03 11:41:16;;;;;;;17.03;12.23;;;7.90;91.90;;;;;;944471;147;27329;-79
2022/12/03 11:43:52;;;;;;;16.77;11.90;;;7.90;92.00;;;;;;941749;147;27317;-79
2022/12/03 11:46:22;;;;;;;14.70;11.43;;;7.90;91.90;;;;;;941209;147;27340;-79
2022/12/03 11:48:48;;;;;;;14.20;11.23;;;7.90;91.80;;;;;;942224;147;27356;-79
2022/12/03 11:51:15;;;;;;;17.20;12.90;;;7.90;91.80;;;;;;941475;147;27385;-79
2022/12/03 11:53:41;;;;;;;13.83;11.53;;;7.90;91.70;;;;;;940806;147;27455;-78
2022/12/03 11:56:08;;;;;;;13.40;11.37;;;7.90;91.50;;;;;;941469;147;27294;-78
2022/12/03 11:58:35;;;;;;;17.03;12.83;;;7.90;91.60;;;;;;941550;146;27311;-79
2022/12/03 12:01:01;;;;;;;16.53;12.53;;;7.90;91.40;;;;;;941660;150;27426;-79
2022/12/03 12:03:28;;;;;;;17.03;12.77;;;7.90;91.40;;;;;;940498;147;27353;-79
2022/12/03 12:06:09;;;;;;;17.53;12.60;;;7.90;91.40;;;;;;940117;147;27416;-79
2022/12/03 12:08:42;;;;;;;16.20;11.30;;;7.90;91.50;;;;;;941598;147;27359;-79
2022/12/03 12:11:17;;;;;;;16.30;12.80;;;7.90;91.60;;;;;;936566;147;27314;-79
2022/12/03 12:13:43;;;;;;;16.10;11.50;;;7.90;91.60;;;;;;934115;147;27356;-80
2022/12/03 12:16:10;;;;;;;15.77;10.63;;;7.90;91.60;;;;;;942983;147;27417;-80
2022/12/03 12:18:37;;;;;;;14.57;11.23;;;7.90;91.50;;;;;;943233;147;27302;-78
2022/12/03 12:21:40;;;;;;;14.83;12.47;;;7.90;91.40;;;;;;943260;147;27255;-78
2022/12/03 12:24:52;;;;;;;12.73;10.53;;;7.90;91.30;;;;;;940207;147;27295;-79
2022/12/03 12:27:06;;;;;;;13.87;11.63;;;7.90;91.30;;;;;;940204;147;27344;-79
2022/12/03 12:29:33;;;;;;;16.13;11.97;;;7.80;91.30;;;;;;940646;147;27273;-80
2022/12/03 12:32:02;;;;;;;17.10;12.87;;;7.80;91.30;;;;;;941997;147;27295;-79
2022/12/03 12:34:29;;;;;;;19.27;13.50;;;7.80;91.30;;;;;;940690;147;27859;-79
2022/12/03 12:36:56;;;;;;;16.50;12.90;;;7.80;91.20;;;;;;940829;147;27318;-79
2022/12/03 12:39:22;;;;;;;15.87;12.40;;;7.80;91.30;;;;;;944139;147;27374;-79
2022/12/03 12:41:49;;;;;;;15.37;11.73;;;7.80;91.70;;;;;;939816;148;27318;-80
2022/12/03 12:44:17;;;;;;;14.83;12.13;;;7.80;91.20;;;;;;941186;147;27373;-79
2022/12/03 12:46:42;;;;;;;16.20;12.27;;;7.80;91.20;;;;;;941103;147;27383;-79
2022/12/03 12:49:11;;;;;;;15.03;12.23;;;7.80;91.20;;;;;;938285;147;27417;-79
2022/12/03 12:51:38;;;;;;;16.03;12.87;;;7.80;91.30;;;;;;939424;147;27433;-79
2022/12/03 12:54:10;;;;;;;14.87;11.63;;;7.80;91.30;;;;;;940695;147;27263;-80
2022/12/03 12:56:37;;;;;;;14.70;11.17;;;7.80;91.30;;;;;;940598;147;27368;-79
2022/12/03 12:59:09;;;;;;;16.40;11.73;;;7.80;91.30;;;;;;940746;147;28979;-79
2022/12/03 13:01:35;;;;;;;14.50;11.87;;;7.80;91.30;;;;;;943521;146;27350;-79
2022/12/03 13:04:02;;;;;;;16.67;11.57;;;7.80;91.30;;;;;;955545;146;27396;-78
2022/12/03 13:06:29;;;;;;;16.00;12.67;;;7.80;91.30;;;;;;952018;145;27314;-78
2022/12/03 13:08:55;;;;;;;17.50;12.90;;;7.80;91.30;;;;;;953195;146;27414;-78
2022/12/03 13:11:24;;;;;;;16.27;13.00;;;7.80;91.40;;;;;;953792;145;27383;-79
2022/12/03 13:13:51;;;;;;;21.90;12.83;;;7.80;91.40;;;;;;953688;146;27843;-79
2022/12/03 13:16:18;;;;;;;16.43;12.13;;;7.80;91.40;;;;;;953715;145;27313;-78
2022/12/03 13:18:53;;;;;;;15.53;11.97;;;7.80;91.30;;;;;;953350;146;27399;-79